CheckWX is a tool to help pilots better visualize weather data.  It is not intended as a substitute for an official pre-flight weather briefing.

07:12:37 UTC

KOXD METAR
Miami University Airport
Oxford, Ohio, USA
Current

18 mins ago

KOXD 260655Z AUTO 24005KT 10SM CLR 21/21 A3005 RMK AO2 T02110205
Observed
May-26 @ 06:55 UTC
Wind
  • 240° at 5 KTS
Visibility
10 SM
Flight Rules
VFR
Cloud Levels
  • Clear skies
Temperature
21°C / 70°F
Dewpoint
21°C / 70°F
Humidity
100%
Altimeter
30.05" Hg
Pressure
1017.62 hPa
Previous

38 mins ago

KOXD 260635Z AUTO 24004KT 10SM CLR 21/21 A3005 RMK AO2 T02120206
Observed
May-26 @ 06:35 UTC
Wind
  • 240° at 4 KTS
Visibility
10 SM
Flight Rules
VFR
Cloud Levels
  • Clear skies
Temperature
21°C / 70°F
Dewpoint
21°C / 70°F
Humidity
100%
Altimeter
30.05" Hg
Pressure
1017.62 hPa
Previous

57 mins ago

KOXD 260616Z AUTO 25005KT 10SM CLR 22/21 A3006 RMK AO2 T02150207
Observed
May-26 @ 06:16 UTC
Wind
  • 250° at 5 KTS
Visibility
10 SM
Flight Rules
VFR
Cloud Levels
  • Clear skies
Temperature
22°C / 72°F
Dewpoint
21°C / 70°F
Humidity
94%
Altimeter
30.06" Hg
Pressure
1017.92 hPa